KATW

Appleton International Airport

Appleton, Wisconsin, USA
METAR KATW 151945Z 21004KT 10SM SCT035 BKN045 29/18 A2995
Observed Flight Rules
Jul-15 @ 19:45 UTC (an hour ago) Visual Flight Rules
Wind Visibility Clouds
210° at 4 knots 10 miles
  • Scattered at 3,500' AGL
  • Broken at 4,500' AGL
Temperatures Readings
Current 29°C / 84°F
Dewpoint 18°C / 64°F
Humidity 51%
Altimeter 29.95" Hg
Pressure 1014 hPa
Elevation 280
METAR KATW 151945Z 21004KT 10SM SCT035 BKN045 29/18 A2995
Observed Flight Rules
Jul-15 @ 19:45 UTC
(an hour ago)
VFR
Wind Visibility
210° at 4 knots 10 miles
Clouds
  • Scattered at 3,500' AGL
  • Broken at 4,500' AGL
Temperature Dewpoint
29°C / 84°F 18°C / 64°F
Humidity Altimeter Pressure
51% 29.95" Hg 1014 hPa